Skip Navigation Links
NOAA logo - Click to go to the NOAA homepage
NOAA's National Weather Service
Alaska Aviation Weather Unit
  NWS logo - Click to go to the NWS homepage
Left Navbar Graphic     02 AKDT = 10 GMT

   
NOAA is celebrating 200 years of science, service, and stewardship. Visit the NOAA 200th celebration Web site to learn more.
USA.gov is the U.S. Government's official Web portal to all Federal, state and local government Web resources and services.
Facebook
NWS on Facebook

AAWU Home :: Display TAF Add Bookmark
METAR PANT 270453Z AUTO 11008G17KT 10SM -RA SCT028 OVC034 06/01 A2955
     RMK AO2 RAB08 SLP010 P0000 T00610011 TSNO=

METAR PANT 270553Z AUTO 10008KT 10SM -RA FEW030 OVC037 06/02 A2957 RMK
     AO2 SLP015 P0001 60002 T00610022 10089 20056 51014 TSNO=

METAR PANT 270653Z AUTO 12007G18KT 080V140 6SM -RA BKN029 OVC033
 06/02 A2960 RMK AO2 SLP023 P0000 T00610022 TSNO=

METAR PANT 270753Z AUTO 12009G15KT 10SM OVC024 07/03 A2961 RMK AO2 RAE39
     SLP028 P0002 T00670028 TSNO=

METAR PANT 270853Z AUTO 12009G18KT 10SM OVC023 07/02 A2963 RMK AO2
     SLP033 60002 T00670022 401000039 51019 TSNO=

METAR PANT 270953Z AUTO 11009KT 10SM OVC020 07/03 A2963 RMK AO2 SLP035
     T00670028 TSNO=


NOAA's National Weather Service
Alaska Aviation Weather Unit
6930 Sand Lake Road
Anchorage, AK 99502-1845
Disclaimer
Credits
Glossary
Privacy Policy
About Us
Career Opportunities
Contact AAWU Internet Services Site last modified: April, 17th 2012